sensor_id;sensor_type;location;lat;lon;timestamp;P1;durP1;ratioP1;P2;durP2;ratioP2
76348;SDS011;65172;46.764;15.406;2023-02-04T00:01:21;0.10;;;0.10;;
76348;SDS011;65172;46.764;15.406;2023-02-04T00:03:46;0.13;;;0.10;;
76348;SDS011;65172;46.764;15.406;2023-02-04T00:06:12;0.30;;;0.17;;
76348;SDS011;65172;46.764;15.406;2023-02-04T00:08:37;0.50;;;0.30;;
76348;SDS011;65172;46.764;15.406;2023-02-04T00:11:03;0.52;;;0.30;;
76348;SDS011;65172;46.764;15.406;2023-02-04T00:13:29;0.63;;;0.20;;
76348;SDS011;65172;46.764;15.406;2023-02-04T00:15:54;0.95;;;0.30;;
76348;SDS011;65172;46.764;15.406;2023-02-04T00:18:20;0.98;;;0.30;;
76348;SDS011;65172;46.764;15.406;2023-02-04T00:20:45;0.22;;;0.20;;
76348;SDS011;65172;46.764;15.406;2023-02-04T00:23:11;0.93;;;0.30;;
76348;SDS011;65172;46.764;15.406;2023-02-04T00:25:36;0.35;;;0.30;;
76348;SDS011;65172;46.764;15.406;2023-02-04T00:28:02;0.30;;;0.20;;
76348;SDS011;65172;46.764;15.406;2023-02-04T00:30:28;0.43;;;0.20;;
76348;SDS011;65172;46.764;15.406;2023-02-04T00:32:54;0.30;;;0.20;;
76348;SDS011;65172;46.764;15.406;2023-02-04T00:35:21;0.10;;;0.10;;
76348;SDS011;65172;46.764;15.406;2023-02-04T00:37:47;0.95;;;0.25;;
76348;SDS011;65172;46.764;15.406;2023-02-04T00:40:13;0.50;;;0.17;;
76348;SDS011;65172;46.764;15.406;2023-02-04T00:42:38;0.57;;;0.10;;
76348;SDS011;65172;46.764;15.406;2023-02-04T00:45:04;1.80;;;0.20;;
76348;SDS011;65172;46.764;15.406;2023-02-04T00:47:30;0.20;;;0.10;;
76348;SDS011;65172;46.764;15.406;2023-02-04T00:49:55;0.55;;;0.20;;
76348;SDS011;65172;46.764;15.406;2023-02-04T00:52:21;0.20;;;0.10;;
76348;SDS011;65172;46.764;15.406;2023-02-04T00:54:47;0.10;;;0.10;;
76348;SDS011;65172;46.764;15.406;2023-02-04T00:57:12;0.20;;;0.10;;
76348;SDS011;65172;46.764;15.406;2023-02-04T00:59:38;0.35;;;0.20;;
76348;SDS011;65172;46.764;15.406;2023-02-04T01:02:03;0.20;;;0.20;;
76348;SDS011;65172;46.764;15.406;2023-02-04T01:04:29;0.30;;;0.20;;
76348;SDS011;65172;46.764;15.406;2023-02-04T01:06:54;0.65;;;0.28;;
76348;SDS011;65172;46.764;15.406;2023-02-04T01:09:20;0.20;;;0.10;;
76348;SDS011;65172;46.764;15.406;2023-02-04T01:11:45;0.30;;;0.10;;
76348;SDS011;65172;46.764;15.406;2023-02-04T01:14:11;0.30;;;0.10;;
76348;SDS011;65172;46.764;15.406;2023-02-04T01:16:37;0.30;;;0.20;;
76348;SDS011;65172;46.764;15.406;2023-02-04T01:19:02;0.20;;;0.20;;
76348;SDS011;65172;46.764;15.406;2023-02-04T01:21:28;0.17;;;0.17;;
76348;SDS011;65172;46.764;15.406;2023-02-04T01:23:53;0.20;;;0.10;;
76348;SDS011;65172;46.764;15.406;2023-02-04T01:26:19;0.20;;;0.20;;
76348;SDS011;65172;46.764;15.406;2023-02-04T01:28:45;0.98;;;0.40;;
76348;SDS011;65172;46.764;15.406;2023-02-04T01:31:11;1.92;;;0.20;;
76348;SDS011;65172;46.764;15.406;2023-02-04T01:33:36;0.17;;;0.13;;
76348;SDS011;65172;46.764;15.406;2023-02-04T01:36:02;0.38;;;0.22;;
76348;SDS011;65172;46.764;15.406;2023-02-04T01:38:28;5.50;;;0.30;;
76348;SDS011;65172;46.764;15.406;2023-02-04T01:40:53;0.55;;;0.20;;
76348;SDS011;65172;46.764;15.406;2023-02-04T01:43:19;0.20;;;0.17;;
76348;SDS011;65172;46.764;15.406;2023-02-04T01:45:46;0.30;;;0.20;;
76348;SDS011;65172;46.764;15.406;2023-02-04T01:48:13;0.38;;;0.20;;
76348;SDS011;65172;46.764;15.406;2023-02-04T01:50:45;0.88;;;0.20;;
76348;SDS011;65172;46.764;15.406;2023-02-04T01:53:12;0.15;;;0.10;;
76348;SDS011;65172;46.764;15.406;2023-02-04T01:55:38;0.30;;;0.20;;
76348;SDS011;65172;46.764;15.406;2023-02-04T01:58:03;0.38;;;0.22;;
76348;SDS011;65172;46.764;15.406;2023-02-04T02:00:30;0.38;;;0.20;;
76348;SDS011;65172;46.764;15.406;2023-02-04T02:02:56;0.10;;;0.10;;
76348;SDS011;65172;46.764;15.406;2023-02-04T02:05:23;0.13;;;0.13;;
76348;SDS011;65172;46.764;15.406;2023-02-04T02:07:52;0.50;;;0.20;;
76348;SDS011;65172;46.764;15.406;2023-02-04T02:10:18;0.20;;;0.20;;
76348;SDS011;65172;46.764;15.406;2023-02-04T02:12:44;0.30;;;0.20;;
76348;SDS011;65172;46.764;15.406;2023-02-04T02:15:11;0.30;;;0.20;;
76348;SDS011;65172;46.764;15.406;2023-02-04T02:17:37;0.28;;;0.20;;
76348;SDS011;65172;46.764;15.406;2023-02-04T02:20:04;0.95;;;0.20;;
76348;SDS011;65172;46.764;15.406;2023-02-04T02:22:36;0.63;;;0.30;;
76348;SDS011;65172;46.764;15.406;2023-02-04T02:25:22;0.32;;;0.20;;
76348;SDS011;65172;46.764;15.406;2023-02-04T02:27:47;0.90;;;0.30;;
76348;SDS011;65172;46.764;15.406;2023-02-04T02:30:13;0.25;;;0.20;;
76348;SDS011;65172;46.764;15.406;2023-02-04T02:32:46;1.08;;;0.57;;
76348;SDS011;65172;46.764;15.406;2023-02-04T02:35:13;1.17;;;0.60;;
76348;SDS011;65172;46.764;15.406;2023-02-04T02:37:38;0.77;;;0.50;;
76348;SDS011;65172;46.764;15.406;2023-02-04T02:40:04;0.80;;;0.50;;
76348;SDS011;65172;46.764;15.406;2023-02-04T02:42:31;0.68;;;0.52;;
76348;SDS011;65172;46.764;15.406;2023-02-04T02:44:56;0.63;;;0.47;;
76348;SDS011;65172;46.764;15.406;2023-02-04T02:47:22;0.63;;;0.40;;
76348;SDS011;65172;46.764;15.406;2023-02-04T02:49:49;0.80;;;0.30;;
76348;SDS011;65172;46.764;15.406;2023-02-04T02:52:16;0.45;;;0.38;;
76348;SDS011;65172;46.764;15.406;2023-02-04T02:54:41;0.30;;;0.30;;
76348;SDS011;65172;46.764;15.406;2023-02-04T02:57:14;0.95;;;0.47;;
76348;SDS011;65172;46.764;15.406;2023-02-04T02:59:41;1.38;;;0.40;;
76348;SDS011;65172;46.764;15.406;2023-02-04T03:02:08;0.60;;;0.22;;
76348;SDS011;65172;46.764;15.406;2023-02-04T03:04:37;0.32;;;0.30;;
76348;SDS011;65172;46.764;15.406;2023-02-04T03:07:04;0.57;;;0.40;;
76348;SDS011;65172;46.764;15.406;2023-02-04T03:09:31;0.38;;;0.20;;
76348;SDS011;65172;46.764;15.406;2023-02-04T03:11:57;0.35;;;0.20;;
76348;SDS011;65172;46.764;15.406;2023-02-04T03:14:22;0.38;;;0.30;;
76348;SDS011;65172;46.764;15.406;2023-02-04T03:16:49;0.57;;;0.30;;
76348;SDS011;65172;46.764;15.406;2023-02-04T03:19:15;0.82;;;0.28;;
76348;SDS011;65172;46.764;15.406;2023-02-04T03:21:41;0.65;;;0.30;;
76348;SDS011;65172;46.764;15.406;2023-02-04T03:24:07;0.30;;;0.30;;
76348;SDS011;65172;46.764;15.406;2023-02-04T03:26:32;0.55;;;0.30;;
76348;SDS011;65172;46.764;15.406;2023-02-04T03:28:58;0.60;;;0.30;;
76348;SDS011;65172;46.764;15.406;2023-02-04T03:31:24;0.63;;;0.30;;
76348;SDS011;65172;46.764;15.406;2023-02-04T03:33:49;0.28;;;0.20;;
76348;SDS011;65172;46.764;15.406;2023-02-04T03:36:15;1.15;;;0.50;;
76348;SDS011;65172;46.764;15.406;2023-02-04T03:38:41;4.20;;;1.77;;
76348;SDS011;65172;46.764;15.406;2023-02-04T03:41:06;0.77;;;0.30;;
76348;SDS011;65172;46.764;15.406;2023-02-04T03:43:32;0.70;;;0.30;;
76348;SDS011;65172;46.764;15.406;2023-02-04T03:45:58;1.95;;;0.30;;
76348;SDS011;65172;46.764;15.406;2023-02-04T03:48:23;0.95;;;0.50;;
76348;SDS011;65172;46.764;15.406;2023-02-04T03:50:49;0.70;;;0.30;;
76348;SDS011;65172;46.764;15.406;2023-02-04T03:53:14;0.55;;;0.30;;
76348;SDS011;65172;46.764;15.406;2023-02-04T03:55:40;1.27;;;0.50;;
76348;SDS011;65172;46.764;15.406;2023-02-04T03:58:05;0.28;;;0.20;;
76348;SDS011;65172;46.764;15.406;2023-02-04T04:00:31;0.30;;;0.20;;
76348;SDS011;65172;46.764;15.406;2023-02-04T04:02:57;0.68;;;0.20;;
76348;SDS011;65172;46.764;15.406;2023-02-04T04:05:23;0.52;;;0.22;;
76348;SDS011;65172;46.764;15.406;2023-02-04T04:07:49;0.40;;;0.30;;
76348;SDS011;65172;46.764;15.406;2023-02-04T04:10:16;0.40;;;0.20;;
76348;SDS011;65172;46.764;15.406;2023-02-04T04:12:42;0.82;;;0.63;;
76348;SDS011;65172;46.764;15.406;2023-02-04T04:15:07;1.60;;;1.00;;
76348;SDS011;65172;46.764;15.406;2023-02-04T04:17:33;0.47;;;0.40;;
76348;SDS011;65172;46.764;15.406;2023-02-04T04:19:58;1.75;;;0.40;;
76348;SDS011;65172;46.764;15.406;2023-02-04T04:22:24;1.23;;;0.30;;
76348;SDS011;65172;46.764;15.406;2023-02-04T04:24:49;0.40;;;0.30;;
76348;SDS011;65172;46.764;15.406;2023-02-04T04:27:15;0.60;;;0.40;;
76348;SDS011;65172;46.764;15.406;2023-02-04T04:29:40;0.22;;;0.20;;
76348;SDS011;65172;46.764;15.406;2023-02-04T04:32:06;1.27;;;0.20;;
76348;SDS011;65172;46.764;15.406;2023-02-04T04:34:33;0.43;;;0.20;;
76348;SDS011;65172;46.764;15.406;2023-02-04T04:36:59;0.38;;;0.20;;
76348;SDS011;65172;46.764;15.406;2023-02-04T04:39:24;1.00;;;0.55;;
76348;SDS011;65172;46.764;15.406;2023-02-04T04:41:50;0.47;;;0.20;;
76348;SDS011;65172;46.764;15.406;2023-02-04T04:44:15;0.30;;;0.20;;
76348;SDS011;65172;46.764;15.406;2023-02-04T04:46:41;1.35;;;0.28;;
76348;SDS011;65172;46.764;15.406;2023-02-04T04:49:06;0.40;;;0.30;;
76348;SDS011;65172;46.764;15.406;2023-02-04T04:51:32;0.20;;;0.20;;
76348;SDS011;65172;46.764;15.406;2023-02-04T04:53:58;0.28;;;0.20;;
76348;SDS011;65172;46.764;15.406;2023-02-04T04:56:24;0.57;;;0.20;;
76348;SDS011;65172;46.764;15.406;2023-02-04T04:58:49;0.43;;;0.30;;
76348;SDS011;65172;46.764;15.406;2023-02-04T05:01:18;0.73;;;0.25;;
76348;SDS011;65172;46.764;15.406;2023-02-04T05:03:45;0.50;;;0.20;;
76348;SDS011;65172;46.764;15.406;2023-02-04T05:06:11;0.50;;;0.30;;
76348;SDS011;65172;46.764;15.406;2023-02-04T05:08:37;1.13;;;0.30;;
76348;SDS011;65172;46.764;15.406;2023-02-04T05:11:05;0.88;;;0.28;;
76348;SDS011;65172;46.764;15.406;2023-02-04T05:13:31;0.30;;;0.30;;
76348;SDS011;65172;46.764;15.406;2023-02-04T05:15:56;0.35;;;0.20;;
76348;SDS011;65172;46.764;15.406;2023-02-04T05:18:22;0.50;;;0.30;;
76348;SDS011;65172;46.764;15.406;2023-02-04T05:20:47;0.50;;;0.40;;
76348;SDS011;65172;46.764;15.406;2023-02-04T05:23:13;0.73;;;0.35;;
76348;SDS011;65172;46.764;15.406;2023-02-04T05:25:38;2.33;;;0.45;;
76348;SDS011;65172;46.764;15.406;2023-02-04T05:28:04;0.50;;;0.20;;
76348;SDS011;65172;46.764;15.406;2023-02-04T05:30:30;1.83;;;0.45;;
76348;SDS011;65172;46.764;15.406;2023-02-04T05:32:55;0.85;;;0.50;;
76348;SDS011;65172;46.764;15.406;2023-02-04T05:35:21;0.47;;;0.40;;
76348;SDS011;65172;46.764;15.406;2023-02-04T05:37:46;2.10;;;0.55;;
76348;SDS011;65172;46.764;15.406;2023-02-04T05:40:12;0.70;;;0.40;;
76348;SDS011;65172;46.764;15.406;2023-02-04T05:42:38;0.68;;;0.30;;
76348;SDS011;65172;46.764;15.406;2023-02-04T05:45:03;0.30;;;0.30;;
76348;SDS011;65172;46.764;15.406;2023-02-04T05:47:29;0.50;;;0.30;;
76348;SDS011;65172;46.764;15.406;2023-02-04T05:49:55;2.05;;;0.40;;
76348;SDS011;65172;46.764;15.406;2023-02-04T05:52:21;3.42;;;0.70;;
76348;SDS011;65172;46.764;15.406;2023-02-04T05:54:47;0.63;;;0.30;;
76348;SDS011;65172;46.764;15.406;2023-02-04T05:57:12;0.65;;;0.30;;
76348;SDS011;65172;46.764;15.406;2023-02-04T05:59:38;1.52;;;0.22;;
76348;SDS011;65172;46.764;15.406;2023-02-04T06:02:03;0.60;;;0.30;;
76348;SDS011;65172;46.764;15.406;2023-02-04T06:04:29;0.98;;;0.40;;
76348;SDS011;65172;46.764;15.406;2023-02-04T06:06:54;1.10;;;0.40;;
76348;SDS011;65172;46.764;15.406;2023-02-04T06:09:20;2.13;;;0.40;;
76348;SDS011;65172;46.764;15.406;2023-02-04T06:11:45;0.95;;;0.50;;
76348;SDS011;65172;46.764;15.406;2023-02-04T06:14:11;0.55;;;0.35;;
76348;SDS011;65172;46.764;15.406;2023-02-04T06:16:36;0.40;;;0.30;;
76348;SDS011;65172;46.764;15.406;2023-02-04T06:19:02;0.88;;;0.40;;
76348;SDS011;65172;46.764;15.406;2023-02-04T06:21:27;1.13;;;0.40;;
76348;SDS011;65172;46.764;15.406;2023-02-04T06:23:53;1.13;;;0.25;;
76348;SDS011;65172;46.764;15.406;2023-02-04T06:26:18;1.48;;;0.30;;
76348;SDS011;65172;46.764;15.406;2023-02-04T06:28:44;1.23;;;0.30;;
76348;SDS011;65172;46.764;15.406;2023-02-04T06:31:09;0.10;;;0.10;;
76348;SDS011;65172;46.764;15.406;2023-02-04T06:33:35;0.20;;;0.20;;
76348;SDS011;65172;46.764;15.406;2023-02-04T06:36:02;1.17;;;0.20;;
76348;SDS011;65172;46.764;15.406;2023-02-04T06:38:28;0.55;;;0.20;;
76348;SDS011;65172;46.764;15.406;2023-02-04T06:40:54;0.50;;;0.20;;
76348;SDS011;65172;46.764;15.406;2023-02-04T06:43:19;1.10;;;0.30;;
76348;SDS011;65172;46.764;15.406;2023-02-04T06:45:45;0.85;;;0.30;;
76348;SDS011;65172;46.764;15.406;2023-02-04T06:48:11;0.85;;;0.30;;
76348;SDS011;65172;46.764;15.406;2023-02-04T06:50:36;0.65;;;0.20;;
76348;SDS011;65172;46.764;15.406;2023-02-04T06:53:02;0.20;;;0.20;;
76348;SDS011;65172;46.764;15.406;2023-02-04T06:55:28;0.55;;;0.20;;
76348;SDS011;65172;46.764;15.406;2023-02-04T06:57:53;0.50;;;0.20;;
76348;SDS011;65172;46.764;15.406;2023-02-04T07:00:19;1.48;;;0.30;;
76348;SDS011;65172;46.764;15.406;2023-02-04T07:02:44;0.68;;;0.10;;
76348;SDS011;65172;46.764;15.406;2023-02-04T07:05:10;0.70;;;0.30;;
76348;SDS011;65172;46.764;15.406;2023-02-04T07:07:36;0.40;;;0.20;;
76348;SDS011;65172;46.764;15.406;2023-02-04T07:10:02;1.98;;;0.40;;
76348;SDS011;65172;46.764;15.406;2023-02-04T07:12:28;0.55;;;0.40;;
76348;SDS011;65172;46.764;15.406;2023-02-04T07:14:53;2.75;;;0.43;;
76348;SDS011;65172;46.764;15.406;2023-02-04T07:17:19;0.65;;;0.22;;
76348;SDS011;65172;46.764;15.406;2023-02-04T07:19:44;7.10;;;0.52;;
76348;SDS011;65172;46.764;15.406;2023-02-04T07:22:10;0.30;;;0.20;;
76348;SDS011;65172;46.764;15.406;2023-02-04T07:24:35;0.90;;;0.30;;
76348;SDS011;65172;46.764;15.406;2023-02-04T07:27:01;4.00;;;0.60;;
76348;SDS011;65172;46.764;15.406;2023-02-04T07:29:26;0.50;;;0.20;;
76348;SDS011;65172;46.764;15.406;2023-02-04T07:31:52;0.40;;;0.20;;
76348;SDS011;65172;46.764;15.406;2023-02-04T07:34:18;0.90;;;0.32;;
76348;SDS011;65172;46.764;15.406;2023-02-04T07:36:44;0.30;;;0.20;;
76348;SDS011;65172;46.764;15.406;2023-02-04T07:39:09;0.77;;;0.30;;
76348;SDS011;65172;46.764;15.406;2023-02-04T07:41:35;1.10;;;0.30;;
76348;SDS011;65172;46.764;15.406;2023-02-04T07:44:00;4.47;;;0.45;;
76348;SDS011;65172;46.764;15.406;2023-02-04T07:46:26;2.45;;;0.85;;
76348;SDS011;65172;46.764;15.406;2023-02-04T07:48:52;1.25;;;0.50;;
76348;SDS011;65172;46.764;15.406;2023-02-04T07:51:17;0.60;;;0.25;;
76348;SDS011;65172;46.764;15.406;2023-02-04T07:53:43;2.72;;;0.75;;
76348;SDS011;65172;46.764;15.406;2023-02-04T07:56:08;1.30;;;0.30;;
76348;SDS011;65172;46.764;15.406;2023-02-04T07:58:34;2.60;;;0.65;;
76348;SDS011;65172;46.764;15.406;2023-02-04T08:01:00;1.30;;;0.45;;
76348;SDS011;65172;46.764;15.406;2023-02-04T08:03:25;2.88;;;1.23;;
76348;SDS011;65172;46.764;15.406;2023-02-04T08:05:51;2.03;;;1.13;;
76348;SDS011;65172;46.764;15.406;2023-02-04T08:08:17;1.63;;;0.30;;
76348;SDS011;65172;46.764;15.406;2023-02-04T08:10:42;0.77;;;0.20;;
76348;SDS011;65172;46.764;15.406;2023-02-04T08:13:08;1.20;;;0.15;;
76348;SDS011;65172;46.764;15.406;2023-02-04T08:15:34;0.55;;;0.20;;
76348;SDS011;65172;46.764;15.406;2023-02-04T08:17:59;0.10;;;0.10;;
76348;SDS011;65172;46.764;15.406;2023-02-04T08:20:25;0.30;;;0.20;;
76348;SDS011;65172;46.764;15.406;2023-02-04T08:22:50;0.80;;;0.30;;
76348;SDS011;65172;46.764;15.406;2023-02-04T08:25:16;0.20;;;0.20;;
76348;SDS011;65172;46.764;15.406;2023-02-04T08:27:41;0.40;;;0.10;;
76348;SDS011;65172;46.764;15.406;2023-02-04T08:30:07;0.43;;;0.30;;
76348;SDS011;65172;46.764;15.406;2023-02-04T08:32:33;0.32;;;0.32;;
76348;SDS011;65172;46.764;15.406;2023-02-04T08:34:59;1.10;;;0.30;;
76348;SDS011;65172;46.764;15.406;2023-02-04T08:37:25;0.77;;;0.30;;
76348;SDS011;65172;46.764;15.406;2023-02-04T08:39:50;0.77;;;0.50;;
76348;SDS011;65172;46.764;15.406;2023-02-04T08:42:16;0.82;;;0.40;;
76348;SDS011;65172;46.764;15.406;2023-02-04T08:44:42;0.82;;;0.22;;
76348;SDS011;65172;46.764;15.406;2023-02-04T08:47:08;0.68;;;0.30;;
76348;SDS011;65172;46.764;15.406;2023-02-04T08:49:34;1.63;;;0.50;;
76348;SDS011;65172;46.764;15.406;2023-02-04T08:52:00;0.95;;;0.45;;
76348;SDS011;65172;46.764;15.406;2023-02-04T08:54:27;0.50;;;0.30;;
76348;SDS011;65172;46.764;15.406;2023-02-04T08:56:53;0.28;;;0.20;;
76348;SDS011;65172;46.764;15.406;2023-02-04T08:59:18;0.50;;;0.20;;
76348;SDS011;65172;46.764;15.406;2023-02-04T09:01:45;0.80;;;0.22;;
76348;SDS011;65172;46.764;15.406;2023-02-04T09:04:13;0.30;;;0.25;;
76348;SDS011;65172;46.764;15.406;2023-02-04T09:06:39;0.30;;;0.20;;
76348;SDS011;65172;46.764;15.406;2023-02-04T09:09:04;2.08;;;0.20;;
76348;SDS011;65172;46.764;15.406;2023-02-04T09:11:30;0.20;;;0.20;;
76348;SDS011;65172;46.764;15.406;2023-02-04T09:13:55;0.10;;;0.10;;
76348;SDS011;65172;46.764;15.406;2023-02-04T09:16:21;0.73;;;0.32;;
76348;SDS011;65172;46.764;15.406;2023-02-04T09:18:47;0.40;;;0.17;;
76348;SDS011;65172;46.764;15.406;2023-02-04T09:21:12;0.50;;;0.20;;
76348;SDS011;65172;46.764;15.406;2023-02-04T09:23:38;0.88;;;0.40;;
76348;SDS011;65172;46.764;15.406;2023-02-04T09:26:04;0.70;;;0.35;;
76348;SDS011;65172;46.764;15.406;2023-02-04T09:28:30;0.40;;;0.30;;
76348;SDS011;65172;46.764;15.406;2023-02-04T09:30:56;0.85;;;0.20;;
76348;SDS011;65172;46.764;15.406;2023-02-04T09:33:22;0.90;;;0.40;;
76348;SDS011;65172;46.764;15.406;2023-02-04T09:35:47;1.90;;;0.50;;
76348;SDS011;65172;46.764;15.406;2023-02-04T09:38:13;1.35;;;0.32;;
76348;SDS011;65172;46.764;15.406;2023-02-04T09:40:43;0.93;;;0.40;;
76348;SDS011;65172;46.764;15.406;2023-02-04T09:43:12;0.47;;;0.33;;
76348;SDS011;65172;46.764;15.406;2023-02-04T09:45:42;0.70;;;0.30;;
76348;SDS011;65172;46.764;15.406;2023-02-04T09:48:08;0.65;;;0.32;;
76348;SDS011;65172;46.764;15.406;2023-02-04T09:50:37;0.73;;;0.35;;
76348;SDS011;65172;46.764;15.406;2023-02-04T09:53:03;1.00;;;0.20;;
76348;SDS011;65172;46.764;15.406;2023-02-04T09:55:33;1.42;;;0.38;;
76348;SDS011;65172;46.764;15.406;2023-02-04T09:58:00;0.20;;;0.17;;
76348;SDS011;65172;46.764;15.406;2023-02-04T10:00:27;0.50;;;0.20;;
76348;SDS011;65172;46.764;15.406;2023-02-04T10:02:54;0.50;;;0.30;;
76348;SDS011;65172;46.764;15.406;2023-02-04T10:05:26;0.38;;;0.22;;
76348;SDS011;65172;46.764;15.406;2023-02-04T10:07:53;0.68;;;0.25;;
76348;SDS011;65172;46.764;15.406;2023-02-04T10:10:19;0.20;;;0.20;;
76348;SDS011;65172;46.764;15.406;2023-02-04T10:12:47;0.22;;;0.22;;
76348;SDS011;65172;46.764;15.406;2023-02-04T10:15:14;1.17;;;0.40;;
76348;SDS011;65172;46.764;15.406;2023-02-04T10:17:41;0.40;;;0.30;;
76348;SDS011;65172;46.764;15.406;2023-02-04T10:20:15;0.98;;;0.30;;
76348;SDS011;65172;46.764;15.406;2023-02-04T10:22:42;0.20;;;0.20;;
76348;SDS011;65172;46.764;15.406;2023-02-04T10:25:14;0.88;;;0.30;;
76348;SDS011;65172;46.764;15.406;2023-02-04T10:30:27;0.43;;;0.20;;
76348;SDS011;65172;46.764;15.406;2023-02-04T10:32:57;0.52;;;0.20;;
76348;SDS011;65172;46.764;15.406;2023-02-04T10:35:23;0.38;;;0.20;;
76348;SDS011;65172;46.764;15.406;2023-02-04T10:38:01;0.98;;;0.30;;
76348;SDS011;65172;46.764;15.406;2023-02-04T10:40:30;0.57;;;0.32;;
76348;SDS011;65172;46.764;15.406;2023-02-04T10:42:57;0.73;;;0.28;;
76348;SDS011;65172;46.764;15.406;2023-02-04T10:45:24;0.50;;;0.40;;
76348;SDS011;65172;46.764;15.406;2023-02-04T10:47:52;0.30;;;0.20;;
76348;SDS011;65172;46.764;15.406;2023-02-04T10:50:20;1.75;;;0.30;;
76348;SDS011;65172;46.764;15.406;2023-02-04T10:52:53;2.53;;;0.20;;
76348;SDS011;65172;46.764;15.406;2023-02-04T10:55:39;1.58;;;0.20;;
76348;SDS011;65172;46.764;15.406;2023-02-04T12:18:41;0.40;;;0.40;;
76348;SDS011;65172;46.764;15.406;2023-02-04T12:21:07;0.73;;;0.60;;
76348;SDS011;65172;46.764;15.406;2023-02-04T12:23:32;2.42;;;0.45;;
76348;SDS011;65172;46.764;15.406;2023-02-04T12:25:58;0.60;;;0.52;;
76348;SDS011;65172;46.764;15.406;2023-02-04T12:28:24;0.55;;;0.40;;
76348;SDS011;65172;46.764;15.406;2023-02-04T12:30:49;0.80;;;0.60;;
76348;SDS011;65172;46.764;15.406;2023-02-04T12:33:15;1.45;;;0.63;;
76348;SDS011;65172;46.764;15.406;2023-02-04T12:35:41;1.00;;;0.60;;
76348;SDS011;65172;46.764;15.406;2023-02-04T12:38:06;0.50;;;0.50;;
76348;SDS011;65172;46.764;15.406;2023-02-04T12:40:33;0.68;;;0.50;;
76348;SDS011;65172;46.764;15.406;2023-02-04T12:42:58;0.73;;;0.50;;
76348;SDS011;65172;46.764;15.406;2023-02-04T12:45:24;0.50;;;0.40;;
76348;SDS011;65172;46.764;15.406;2023-02-04T12:47:49;1.15;;;0.50;;
76348;SDS011;65172;46.764;15.406;2023-02-04T12:50:16;2.00;;;0.50;;
76348;SDS011;65172;46.764;15.406;2023-02-04T12:52:52;1.15;;;0.50;;
76348;SDS011;65172;46.764;15.406;2023-02-04T12:55:19;1.20;;;0.52;;
76348;SDS011;65172;46.764;15.406;2023-02-04T12:57:45;0.93;;;0.60;;
76348;SDS011;65172;46.764;15.406;2023-02-04T13:00:10;0.85;;;0.60;;
76348;SDS011;65172;46.764;15.406;2023-02-04T13:02:37;0.47;;;0.40;;
76348;SDS011;65172;46.764;15.406;2023-02-04T13:05:03;0.98;;;0.50;;
76348;SDS011;65172;46.764;15.406;2023-02-04T13:07:28;0.70;;;0.60;;
76348;SDS011;65172;46.764;15.406;2023-02-04T13:09:54;0.98;;;0.60;;
76348;SDS011;65172;46.764;15.406;2023-02-04T13:12:19;1.05;;;0.60;;
76348;SDS011;65172;46.764;15.406;2023-02-04T13:14:45;2.08;;;0.75;;
76348;SDS011;65172;46.764;15.406;2023-02-04T13:17:10;0.68;;;0.52;;
76348;SDS011;65172;46.764;15.406;2023-02-04T13:19:36;0.90;;;0.60;;
76348;SDS011;65172;46.764;15.406;2023-02-04T13:22:02;0.95;;;0.82;;
76348;SDS011;65172;46.764;15.406;2023-02-04T13:24:27;8.45;;;0.70;;
76348;SDS011;65172;46.764;15.406;2023-02-04T13:26:53;0.75;;;0.60;;
76348;SDS011;65172;46.764;15.406;2023-02-04T13:29:19;2.10;;;0.68;;
76348;SDS011;65172;46.764;15.406;2023-02-04T13:31:45;2.35;;;0.80;;
76348;SDS011;65172;46.764;15.406;2023-02-04T13:34:11;0.75;;;0.63;;
76348;SDS011;65172;46.764;15.406;2023-02-04T13:36:36;1.13;;;0.60;;
76348;SDS011;65172;46.764;15.406;2023-02-04T13:39:03;1.10;;;0.50;;
76348;SDS011;65172;46.764;15.406;2023-02-04T13:41:28;1.85;;;0.50;;
76348;SDS011;65172;46.764;15.406;2023-02-04T13:43:54;0.98;;;0.50;;
76348;SDS011;65172;46.764;15.406;2023-02-04T13:46:20;1.05;;;0.57;;
76348;SDS011;65172;46.764;15.406;2023-02-04T13:48:46;1.05;;;0.80;;
76348;SDS011;65172;46.764;15.406;2023-02-04T13:51:12;0.70;;;0.60;;
76348;SDS011;65172;46.764;15.406;2023-02-04T13:53:38;1.05;;;0.52;;
76348;SDS011;65172;46.764;15.406;2023-02-04T13:56:04;1.23;;;0.52;;
76348;SDS011;65172;46.764;15.406;2023-02-04T13:58:30;0.73;;;0.50;;
76348;SDS011;65172;46.764;15.406;2023-02-04T14:00:55;0.75;;;0.50;;
76348;SDS011;65172;46.764;15.406;2023-02-04T14:03:24;1.17;;;0.60;;
76348;SDS011;65172;46.764;15.406;2023-02-04T14:05:52;1.23;;;0.60;;
76348;SDS011;65172;46.764;15.406;2023-02-04T14:08:18;1.23;;;0.68;;
76348;SDS011;65172;46.764;15.406;2023-02-04T14:10:44;2.55;;;0.60;;
76348;SDS011;65172;46.764;15.406;2023-02-04T14:13:10;1.55;;;0.60;;
76348;SDS011;65172;46.764;15.406;2023-02-04T14:15:36;0.70;;;0.65;;
76348;SDS011;65172;46.764;15.406;2023-02-04T14:18:02;1.08;;;0.52;;
76348;SDS011;65172;46.764;15.406;2023-02-04T14:20:28;0.98;;;0.70;;
76348;SDS011;65172;46.764;15.406;2023-02-04T14:22:54;3.38;;;0.80;;
76348;SDS011;65172;46.764;15.406;2023-02-04T14:25:20;1.70;;;1.02;;
76348;SDS011;65172;46.764;15.406;2023-02-04T14:27:46;1.65;;;0.63;;
76348;SDS011;65172;46.764;15.406;2023-02-04T14:30:15;1.98;;;0.70;;
76348;SDS011;65172;46.764;15.406;2023-02-04T14:32:45;1.40;;;0.70;;
76348;SDS011;65172;46.764;15.406;2023-02-04T14:35:11;1.63;;;0.90;;
76348;SDS011;65172;46.764;15.406;2023-02-04T14:37:37;3.17;;;1.17;;
76348;SDS011;65172;46.764;15.406;2023-02-04T14:40:03;1.35;;;0.73;;
76348;SDS011;65172;46.764;15.406;2023-02-04T14:42:29;0.85;;;0.60;;
76348;SDS011;65172;46.764;15.406;2023-02-04T14:44:55;1.05;;;0.50;;
76348;SDS011;65172;46.764;15.406;2023-02-04T14:47:21;1.25;;;0.90;;
76348;SDS011;65172;46.764;15.406;2023-02-04T14:49:47;1.35;;;0.80;;
76348;SDS011;65172;46.764;15.406;2023-02-04T14:52:12;0.93;;;0.70;;
76348;SDS011;65172;46.764;15.406;2023-02-04T14:54:38;2.72;;;0.70;;
76348;SDS011;65172;46.764;15.406;2023-02-04T14:57:05;1.52;;;0.70;;
76348;SDS011;65172;46.764;15.406;2023-02-04T14:59:30;1.42;;;0.63;;
76348;SDS011;65172;46.764;15.406;2023-02-04T15:01:56;1.17;;;0.70;;
76348;SDS011;65172;46.764;15.406;2023-02-04T15:04:21;0.90;;;0.70;;
76348;SDS011;65172;46.764;15.406;2023-02-04T15:06:47;1.27;;;0.95;;
76348;SDS011;65172;46.764;15.406;2023-02-04T15:09:14;1.10;;;0.70;;
76348;SDS011;65172;46.764;15.406;2023-02-04T15:11:40;1.58;;;0.80;;
76348;SDS011;65172;46.764;15.406;2023-02-04T15:14:06;1.13;;;0.77;;
76348;SDS011;65172;46.764;15.406;2023-02-04T15:16:31;1.58;;;0.73;;
76348;SDS011;65172;46.764;15.406;2023-02-04T15:18:57;2.45;;;0.73;;
76348;SDS011;65172;46.764;15.406;2023-02-04T15:21:22;1.92;;;0.80;;
76348;SDS011;65172;46.764;15.406;2023-02-04T15:23:48;1.30;;;0.82;;
76348;SDS011;65172;46.764;15.406;2023-02-04T15:26:14;1.23;;;0.68;;
76348;SDS011;65172;46.764;15.406;2023-02-04T15:28:43;2.22;;;1.00;;
76348;SDS011;65172;46.764;15.406;2023-02-04T15:31:08;0.90;;;0.70;;
76348;SDS011;65172;46.764;15.406;2023-02-04T15:33:36;1.20;;;0.82;;
76348;SDS011;65172;46.764;15.406;2023-02-04T15:36:02;2.40;;;0.70;;
76348;SDS011;65172;46.764;15.406;2023-02-04T15:38:28;1.58;;;0.80;;
76348;SDS011;65172;46.764;15.406;2023-02-04T15:40:53;1.52;;;0.80;;
76348;SDS011;65172;46.764;15.406;2023-02-04T15:43:19;1.65;;;0.98;;
76348;SDS011;65172;46.764;15.406;2023-02-04T15:45:44;1.85;;;1.30;;
76348;SDS011;65172;46.764;15.406;2023-02-04T15:48:10;1.73;;;1.00;;
76348;SDS011;65172;46.764;15.406;2023-02-04T15:50:36;1.42;;;0.88;;